Time;durP1;ratioP1;P1;durP2;ratioP2;P2;SDS_P1;SDS_P2;PMS_P1;PMS_P2;Temp;Humidity;BMP_temperature;BMP_pressure;BME280_temperature;BME280_humidity;BME280_pressure;Samples;Min_cycle;Max_cycle;Signal;HPM_P1;HPM_P2
2023/07/02 00:01:40;;;;;;;;;;;;;;;24.85;49.69;100214.91;5067693;28;19936;-79
2023/07/02 00:04:08;;;;;;;;;;;;;;;24.85;49.59;100220.38;5063365;28;19920;-79
2023/07/02 00:06:40;;;;;;;;;;;;;;;24.82;49.76;100206.59;5065192;28;19969;-79
2023/07/02 00:09:05;;;;;;;;;;;;;;;24.79;49.88;100213.59;5066097;28;19917;-79
2023/07/02 00:11:30;;;;;;;;;;;;;;;24.69;50.04;100216.88;5066823;28;19931;-79
2023/07/02 00:13:56;;;;;;;;;;;;;;;24.65;50.07;100211.31;5062993;28;19931;-80
2023/07/02 00:16:21;;;;;;;;;;;;;;;24.63;50.50;100218.28;5064982;28;19924;-80
2023/07/02 00:18:52;;;;;;;;;;;;;;;24.58;50.52;100213.84;5059899;28;20461;-80
2023/07/02 00:21:19;;;;;;;;;;;;;;;24.52;50.54;100219.97;5065323;28;20384;-79
2023/07/02 00:23:44;;;;;;;;;;;;;;;24.46;50.79;100216.72;5064059;28;20038;-80
2023/07/02 00:26:09;;;;;;;;;;;;;;;24.44;50.79;100212.75;5063597;28;20029;-79
2023/07/02 00:28:35;;;;;;;;;;;;;;;24.46;50.90;100218.66;5061038;28;19959;-80
2023/07/02 00:31:01;;;;;;;;;;;;;;;24.47;50.84;100220.25;5065878;28;19931;-80
2023/07/02 00:33:28;;;;;;;;;;;;;;;24.45;51.08;100217.06;5058359;28;19955;-80
2023/07/02 00:35:54;;;;;;;;;;;;;;;24.44;50.95;100213.53;5062491;28;19973;-80
2023/07/02 00:38:19;;;;;;;;;;;;;;;24.43;51.38;100214.69;5064066;28;20304;-80
2023/07/02 00:40:44;;;;;;;;;;;;;;;24.41;51.31;100216.97;5061628;28;20427;-81
2023/07/02 00:43:12;;;;;;;;;;;;;;;24.47;51.18;100212.03;5063278;28;19924;-81
2023/07/02 00:45:39;;;;;;;;;;;;;;;24.55;50.92;100222.00;5064551;28;19955;-81
2023/07/02 00:48:05;;;;;;;;;;;;;;;24.53;51.06;100219.63;5064630;28;19928;-81
2023/07/02 00:50:30;;;;;;;;;;;;;;;24.48;51.64;100222.63;5058924;28;20455;-81
2023/07/02 00:52:55;;;;;;;;;;;;;;;24.44;51.29;100232.72;5062263;28;19931;-81
2023/07/02 00:55:21;;;;;;;;;;;;;;;24.35;50.79;100252.03;5061106;28;20611;-81
2023/07/02 00:57:46;;;;;;;;;;;;;;;24.29;50.66;100244.44;5057571;28;19929;-81
2023/07/02 01:00:12;;;;;;;;;;;;;;;24.23;50.49;100249.34;5062897;28;19925;-81
2023/07/02 01:02:38;;;;;;;;;;;;;;;24.21;50.19;100250.84;5066297;28;19920;-82
2023/07/02 01:05:04;;;;;;;;;;;;;;;24.16;50.27;100248.38;5062421;28;19923;-82
2023/07/02 01:07:29;;;;;;;;;;;;;;;24.15;50.32;100242.09;5058178;28;20457;-82
2023/07/02 01:09:54;;;;;;;;;;;;;;;24.17;50.13;100239.00;5060066;28;19924;-81
2023/07/02 01:12:21;;;;;;;;;;;;;;;24.19;49.98;100237.50;5061786;28;20348;-81
2023/07/02 01:14:54;;;;;;;;;;;;;;;24.19;50.02;100242.19;5052429;28;20218;-81
2023/07/02 01:17:19;;;;;;;;;;;;;;;24.21;50.00;100229.72;5063759;28;20346;-82
2023/07/02 01:19:52;;;;;;;;;;;;;;;24.24;49.88;100234.53;5060937;28;19924;-82
2023/07/02 01:22:22;;;;;;;;;;;;;;;24.25;49.92;100233.38;5056001;28;19978;-81
2023/07/02 01:24:48;;;;;;;;;;;;;;;24.30;49.81;100235.88;5059259;28;19917;-82
2023/07/02 01:27:15;;;;;;;;;;;;;;;24.36;49.64;100230.91;5059780;28;19947;-81
2023/07/02 01:29:41;;;;;;;;;;;;;;;24.40;49.34;100240.81;5063788;28;19955;-81
2023/07/02 01:32:06;;;;;;;;;;;;;;;24.38;49.34;100234.91;5063482;28;19955;-81
2023/07/02 01:34:31;;;;;;;;;;;;;;;24.37;49.35;100232.50;5060824;28;20019;-82
2023/07/02 01:36:57;;;;;;;;;;;;;;;24.36;49.30;100237.19;5059735;28;20011;-81
2023/07/02 01:39:22;;;;;;;;;;;;;;;24.36;49.37;100239.94;5062522;28;19932;-81
2023/07/02 01:42:07;;;;;;;;;;;;;;;24.38;49.27;100240.38;5061831;28;19916;-81
2023/07/02 01:44:32;;;;;;;;;;;;;;;24.39;49.24;100236.47;5056758;28;19928;-81
2023/07/02 01:46:58;;;;;;;;;;;;;;;24.41;49.26;100244.34;5064662;28;20003;-81
2023/07/02 01:49:24;;;;;;;;;;;;;;;24.44;49.19;100249.13;5066187;28;19916;-81
2023/07/02 01:51:53;;;;;;;;;;;;;;;24.45;49.13;100237.03;5066030;28;20404;-81
2023/07/02 01:54:19;;;;;;;;;;;;;;;24.40;49.22;100245.50;5062421;28;19989;-81
2023/07/02 01:56:44;;;;;;;;;;;;;;;24.36;49.34;100247.34;5051888;28;19955;-81
2023/07/02 01:59:09;;;;;;;;;;;;;;;24.30;49.41;100252.31;5059639;28;19943;-81
2023/07/02 02:01:35;;;;;;;;;;;;;;;24.20;49.74;100250.03;5062880;28;20368;-81
2023/07/02 02:04:00;;;;;;;;;;;;;;;24.13;49.73;100255.34;5063525;28;20364;-81
2023/07/02 02:06:25;;;;;;;;;;;;;;;24.06;49.99;100255.16;5064680;28;20286;-81
2023/07/02 02:08:50;;;;;;;;;;;;;;;23.96;50.03;100252.94;5066029;28;19928;-82
2023/07/02 02:11:16;;;;;;;;;;;;;;;23.89;50.10;100260.94;5064126;28;19970;-81
2023/07/02 02:13:41;;;;;;;;;;;;;;;23.86;50.58;100258.88;5066835;28;19985;-82
2023/07/02 02:16:06;;;;;;;;;;;;;;;23.83;50.21;100267.81;5063559;28;20376;-82
2023/07/02 02:18:32;;;;;;;;;;;;;;;23.83;50.36;100265.84;5065117;28;20287;-82
2023/07/02 02:20:57;;;;;;;;;;;;;;;23.78;50.30;100274.31;5066376;28;19923;-82
2023/07/02 02:23:22;;;;;;;;;;;;;;;23.71;50.43;100271.41;5063741;28;19924;-82
2023/07/02 02:25:48;;;;;;;;;;;;;;;23.66;50.25;100280.63;5063698;28;20336;-82
2023/07/02 02:28:13;;;;;;;;;;;;;;;23.61;50.27;100272.66;5059698;28;19939;-81
2023/07/02 02:30:38;;;;;;;;;;;;;;;23.54;50.25;100279.84;5062104;28;19928;-81
2023/07/02 02:33:04;;;;;;;;;;;;;;;23.57;50.05;100277.25;5050089;28;19962;-81
2023/07/02 02:35:29;;;;;;;;;;;;;;;23.52;49.86;100274.72;5057874;28;19920;-82
2023/07/02 02:37:54;;;;;;;;;;;;;;;23.51;49.97;100278.59;5058401;28;19971;-81
2023/07/02 02:40:19;;;;;;;;;;;;;;;23.52;50.05;100278.25;5053505;28;19924;-81
2023/07/02 02:42:45;;;;;;;;;;;;;;;23.57;49.75;100287.38;5053107;28;19932;-82
2023/07/02 02:45:10;;;;;;;;;;;;;;;23.52;49.46;100282.94;5055108;28;19924;-82
2023/07/02 02:47:36;;;;;;;;;;;;;;;23.50;49.67;100293.41;5054738;28;20021;-82
2023/07/02 02:50:01;;;;;;;;;;;;;;;23.50;49.53;100290.66;5054310;28;20403;-81
2023/07/02 02:52:26;;;;;;;;;;;;;;;23.51;49.66;100292.25;5055061;28;20599;-81
2023/07/02 02:54:55;;;;;;;;;;;;;;;23.55;49.51;100287.72;5051903;28;19921;-81
2023/07/02 02:57:20;;;;;;;;;;;;;;;23.58;49.31;100292.50;5058348;28;20046;-82
2023/07/02 02:59:46;;;;;;;;;;;;;;;23.51;49.37;100298.53;5056109;28;19952;-81
2023/07/02 03:02:11;;;;;;;;;;;;;;;23.48;49.79;100290.22;5055040;28;20015;-82
2023/07/02 03:04:39;;;;;;;;;;;;;;;23.49;49.58;100287.13;5057179;28;20049;-81
2023/07/02 03:07:05;;;;;;;;;;;;;;;23.50;49.56;100296.13;5056273;28;19943;-82
2023/07/02 03:09:31;;;;;;;;;;;;;;;23.52;49.46;100293.88;5056773;28;20400;-82
2023/07/02 03:11:56;;;;;;;;;;;;;;;23.54;49.36;100291.59;5054013;28;19929;-82
2023/07/02 03:14:21;;;;;;;;;;;;;;;23.54;49.39;100296.25;5054613;28;20415;-82
2023/07/02 03:16:46;;;;;;;;;;;;;;;23.47;49.52;100294.88;5058338;28;20402;-82
2023/07/02 03:19:14;;;;;;;;;;;;;;;23.46;49.59;100287.03;5056268;28;19921;-81
2023/07/02 03:21:40;;;;;;;;;;;;;;;23.47;49.53;100294.09;5055187;28;19920;-82
2023/07/02 03:24:05;;;;;;;;;;;;;;;23.43;49.28;100287.72;5055834;28;19948;-81
2023/07/02 03:26:30;;;;;;;;;;;;;;;23.42;49.47;100294.34;5058860;28;19932;-81
2023/07/02 03:28:56;;;;;;;;;;;;;;;23.41;49.52;100295.47;5057868;28;19927;-81
2023/07/02 03:31:21;;;;;;;;;;;;;;;23.48;49.39;100306.63;5059556;28;19931;-81
2023/07/02 03:33:46;;;;;;;;;;;;;;;23.44;49.29;100303.00;5054695;28;19924;-81
2023/07/02 03:36:11;;;;;;;;;;;;;;;23.34;49.43;100320.69;5055209;28;19927;-81
2023/07/02 03:38:37;;;;;;;;;;;;;;;23.29;49.50;100320.91;5055102;28;19963;-81
2023/07/02 03:41:02;;;;;;;;;;;;;;;23.29;49.53;100320.09;5054915;28;19920;-81
2023/07/02 03:43:27;;;;;;;;;;;;;;;23.30;49.56;100321.69;5058352;28;19920;-81
2023/07/02 03:45:53;;;;;;;;;;;;;;;23.27;49.44;100314.97;5057874;28;19950;-81
2023/07/02 03:48:18;;;;;;;;;;;;;;;23.27;49.32;100328.66;5057798;28;19957;-81
2023/07/02 03:50:43;;;;;;;;;;;;;;;23.23;49.47;100332.41;5056468;28;20308;-81
2023/07/02 03:53:09;;;;;;;;;;;;;;;23.21;49.28;100328.09;5053941;28;19921;-81
2023/07/02 03:55:35;;;;;;;;;;;;;;;23.24;49.57;100331.28;5059651;28;20000;-82
2023/07/02 03:58:00;;;;;;;;;;;;;;;23.31;49.30;100326.00;5058691;28;20240;-81
2023/07/02 04:00:25;;;;;;;;;;;;;;;23.38;49.38;100340.72;5057721;28;20327;-81
2023/07/02 04:02:51;;;;;;;;;;;;;;;23.34;49.21;100339.00;5060131;28;19959;-81
2023/07/02 04:05:16;;;;;;;;;;;;;;;23.34;49.29;100334.34;5056731;28;20289;-81
2023/07/02 04:07:41;;;;;;;;;;;;;;;23.34;49.15;100331.63;5056982;28;19920;-82
2023/07/02 04:10:07;;;;;;;;;;;;;;;23.34;49.15;100339.00;5055277;28;20372;-82
2023/07/02 04:12:32;;;;;;;;;;;;;;;23.28;49.26;100338.44;5051136;28;19978;-81
2023/07/02 04:14:57;;;;;;;;;;;;;;;23.29;49.24;100331.03;5056094;28;19960;-81
2023/07/02 04:17:23;;;;;;;;;;;;;;;23.34;49.21;100333.53;5056306;28;19927;-81
2023/07/02 04:19:48;;;;;;;;;;;;;;;23.38;49.24;100343.44;5055470;28;19920;-81
2023/07/02 04:22:14;;;;;;;;;;;;;;;23.39;49.15;100349.72;5056074;28;19982;-81
2023/07/02 04:24:39;;;;;;;;;;;;;;;23.41;49.01;100352.91;5049900;28;19921;-81
2023/07/02 04:27:05;;;;;;;;;;;;;;;23.42;49.05;100366.22;5057609;28;19931;-81
2023/07/02 04:29:30;;;;;;;;;;;;;;;23.45;49.12;100367.47;5059714;28;19924;-81
2023/07/02 04:31:56;;;;;;;;;;;;;;;23.47;49.18;100370.66;5056680;28;19931;-81
2023/07/02 04:34:21;;;;;;;;;;;;;;;23.48;49.13;100378.50;5056957;28;19925;-81
2023/07/02 04:36:47;;;;;;;;;;;;;;;23.52;48.86;100373.97;5062610;28;19932;-81
2023/07/02 04:39:12;;;;;;;;;;;;;;;23.56;49.10;100384.22;5058429;28;20304;-81
2023/07/02 04:41:37;;;;;;;;;;;;;;;23.58;48.88;100382.75;5060168;28;19963;-81
2023/07/02 04:44:03;;;;;;;;;;;;;;;23.58;48.66;100377.28;5063861;28;20332;-81
2023/07/02 04:46:28;;;;;;;;;;;;;;;23.54;48.29;100384.56;5061228;28;19963;-81
2023/07/02 04:48:53;;;;;;;;;;;;;;;23.50;48.61;100373.47;5058730;28;20396;-80
2023/07/02 04:51:20;;;;;;;;;;;;;;;23.56;48.49;100385.00;5057634;28;19953;-80
2023/07/02 04:53:45;;;;;;;;;;;;;;;23.60;48.46;100380.47;5063849;28;20015;-81
2023/07/02 04:56:10;;;;;;;;;;;;;;;23.71;48.42;100380.81;5063374;28;20026;-81
2023/07/02 04:58:36;;;;;;;;;;;;;;;23.79;47.99;100374.38;5061535;28;19930;-80
2023/07/02 05:01:01;;;;;;;;;;;;;;;23.86;47.87;100376.53;5062117;28;20021;-80
2023/07/02 05:03:27;;;;;;;;;;;;;;;23.89;47.77;100373.13;5063109;28;19964;-80
2023/07/02 05:05:52;;;;;;;;;;;;;;;23.91;47.55;100368.91;5061180;28;20238;-81
2023/07/02 05:08:17;;;;;;;;;;;;;;;23.93;47.74;100376.75;5059810;28;20019;-80
2023/07/02 05:10:42;;;;;;;;;;;;;;;23.92;47.61;100375.97;5063411;28;20402;-80
2023/07/02 05:13:08;;;;;;;;;;;;;;;23.91;47.53;100368.91;5059448;28;19920;-80
2023/07/02 05:15:33;;;;;;;;;;;;;;;23.87;47.75;100361.69;5066479;28;20166;-80
2023/07/02 05:17:59;;;;;;;;;;;;;;;23.80;47.69;100363.09;5061608;28;20220;-80
2023/07/02 05:20:24;;;;;;;;;;;;;;;23.83;48.02;100366.28;5061011;28;19951;-80
2023/07/02 05:22:49;;;;;;;;;;;;;;;23.93;47.69;100365.81;5055615;28;20549;-81
2023/07/02 05:25:15;;;;;;;;;;;;;;;24.02;47.41;100366.44;5063685;28;19927;-81
2023/07/02 05:27:40;;;;;;;;;;;;;;;24.03;47.40;100360.63;5064031;28;19927;-82
2023/07/02 05:30:06;;;;;;;;;;;;;;;24.10;47.28;100360.06;5055973;28;19942;-81
2023/07/02 05:32:33;;;;;;;;;;;;;;;24.14;47.14;100371.88;5052271;28;19948;-81
2023/07/02 05:34:59;;;;;;;;;;;;;;;24.18;47.38;100356.34;5063405;28;19924;-81
2023/07/02 05:37:24;;;;;;;;;;;;;;;24.32;47.10;100353.25;5058440;28;19920;-82
2023/07/02 05:39:49;;;;;;;;;;;;;;;24.43;46.87;100367.25;5053107;28;19941;-81
2023/07/02 05:42:14;;;;;;;;;;;;;;;24.57;46.91;100370.31;5054670;28;20442;-82
2023/07/02 05:44:40;;;;;;;;;;;;;;;24.60;46.27;100378.66;5059532;28;20176;-82
2023/07/02 05:47:05;;;;;;;;;;;;;;;24.60;46.30;100377.88;5064484;28;19960;-81
2023/07/02 05:49:30;;;;;;;;;;;;;;;24.60;46.01;100383.34;5061244;28;20404;-80
2023/07/02 05:51:55;;;;;;;;;;;;;;;24.55;46.03;100397.28;5057953;28;20458;-82
2023/07/02 05:54:21;;;;;;;;;;;;;;;24.42;45.94;100388.34;5062142;28;19990;-80
2023/07/02 05:56:46;;;;;;;;;;;;;;;24.40;46.16;100391.41;5062938;28;19927;-80
2023/07/02 05:59:14;;;;;;;;;;;;;;;24.52;46.14;100392.50;5053244;28;19964;-80
2023/07/02 06:01:40;;;;;;;;;;;;;;;24.53;46.01;100374.91;5062248;28;19970;-80
2023/07/02 06:04:05;;;;;;;;;;;;;;;24.56;45.89;100372.28;5057079;28;19952;-80
2023/07/02 06:06:30;;;;;;;;;;;;;;;24.61;45.79;100371.25;5056975;28;20387;-81
2023/07/02 06:08:56;;;;;;;;;;;;;;;24.66;45.84;100370.97;5063064;28;19925;-81
2023/07/02 06:11:21;;;;;;;;;;;;;;;24.79;45.91;100369.75;5054709;28;21257;-83
2023/07/02 06:13:46;;;;;;;;;;;;;;;24.93;45.36;100375.56;5058190;28;19916;-83
2023/07/02 06:16:11;;;;;;;;;;;;;;;25.04;45.33;100364.91;5061559;28;20280;-83
2023/07/02 06:18:37;;;;;;;;;;;;;;;25.10;44.84;100368.97;5056479;28;20184;-83
2023/07/02 06:21:02;;;;;;;;;;;;;;;25.20;44.92;100367.66;5060460;28;20307;-82
2023/07/02 06:23:29;;;;;;;;;;;;;;;25.34;44.71;100373.47;5052602;28;19978;-83
2023/07/02 06:25:58;;;;;;;;;;;;;;;25.35;44.56;100368.78;5062390;28;19921;-83
2023/07/02 06:28:25;;;;;;;;;;;;;;;25.36;44.46;100379.38;5060471;28;19926;-81
2023/07/02 06:30:50;;;;;;;;;;;;;;;25.26;44.19;100388.94;5057153;28;19917;-81
2023/07/02 06:33:15;;;;;;;;;;;;;;;25.20;44.39;100403.28;5059585;28;20573;-82
2023/07/02 06:35:41;;;;;;;;;;;;;;;25.16;44.14;100405.16;5060034;28;19969;-81
2023/07/02 06:38:06;;;;;;;;;;;;;;;24.97;44.20;100392.91;5058076;28;20015;-80
2023/07/02 06:40:31;;;;;;;;;;;;;;;24.82;44.50;100390.97;5059321;28;19942;-81
2023/07/02 06:42:56;;;;;;;;;;;;;;;24.78;44.70;100386.56;5056667;28;19985;-81
2023/07/02 06:45:22;;;;;;;;;;;;;;;24.81;44.51;100378.41;5054694;28;20012;-80
2023/07/02 06:47:47;;;;;;;;;;;;;;;24.78;44.58;100390.09;5055456;28;20407;-80
2023/07/02 06:50:12;;;;;;;;;;;;;;;24.91;44.42;100383.34;5057525;28;19916;-80
2023/07/02 06:52:38;;;;;;;;;;;;;;;25.13;44.31;100394.88;5048223;28;19916;-82
2023/07/02 06:55:03;;;;;;;;;;;;;;;25.18;44.05;100378.19;5050842;28;19921;-82
2023/07/02 06:57:29;;;;;;;;;;;;;;;25.28;44.20;100385.84;5054139;28;20376;-80
2023/07/02 06:59:59;;;;;;;;;;;;;;;25.42;43.95;100386.19;5052635;28;19948;-81
2023/07/02 07:02:24;;;;;;;;;;;;;;;25.44;43.23;100380.34;5059816;28;20010;-80
2023/07/02 07:04:49;;;;;;;;;;;;;;;25.46;43.65;100383.50;5053325;28;20355;-80
2023/07/02 07:07:15;;;;;;;;;;;;;;;25.50;43.51;100398.91;5049733;28;20418;-81
2023/07/02 07:09:40;;;;;;;;;;;;;;;25.55;43.81;100390.41;5053194;28;19935;-81
2023/07/02 07:12:05;;;;;;;;;;;;;;;25.64;43.38;100397.63;5053392;28;20388;-80
2023/07/02 07:14:31;;;;;;;;;;;;;;;25.75;43.17;100394.00;5051435;28;19977;-80
2023/07/02 07:16:56;;;;;;;;;;;;;;;25.91;43.00;100382.97;5049939;28;19931;-82
2023/07/02 07:19:22;;;;;;;;;;;;;;;25.96;42.50;100398.38;5053644;28;20503;-79
2023/07/02 07:21:47;;;;;;;;;;;;;;;25.90;41.48;100381.41;5059897;28;20468;-81
2023/07/02 07:24:12;;;;;;;;;;;;;;;25.82;41.64;100382.38;5057308;28;19928;-80
2023/07/02 07:26:38;;;;;;;;;;;;;;;25.87;42.15;100390.34;5054864;28;19917;-81
2023/07/02 07:29:04;;;;;;;;;;;;;;;26.00;42.08;100388.25;5060512;28;20510;-81
2023/07/02 07:31:29;;;;;;;;;;;;;;;26.15;41.80;100379.16;5052196;28;20028;-81
2023/07/02 07:33:54;;;;;;;;;;;;;;;26.32;41.29;100381.44;5059764;28;20012;-82
2023/07/02 07:36:20;;;;;;;;;;;;;;;26.42;41.21;100388.34;5059778;28;19964;-80
2023/07/02 07:38:45;;;;;;;;;;;;;;;26.47;41.33;100374.31;5056919;28;19930;-80
2023/07/02 07:41:10;;;;;;;;;;;;;;;26.60;40.76;100373.00;5050077;28;19917;-82
2023/07/02 07:43:36;;;;;;;;;;;;;;;26.64;40.15;100389.53;5054725;28;20011;-81
2023/07/02 07:46:01;;;;;;;;;;;;;;;26.60;39.99;100394.97;5055636;28;19916;-80
2023/07/02 07:48:26;;;;;;;;;;;;;;;26.54;40.40;100382.66;5052845;28;20418;-80
2023/07/02 07:50:52;;;;;;;;;;;;;;;26.51;40.36;100386.16;5055950;28;20289;-81
2023/07/02 07:53:17;;;;;;;;;;;;;;;26.65;40.60;100391.91;5056419;28;19916;-79
2023/07/02 07:55:42;;;;;;;;;;;;;;;26.80;39.42;100391.00;5058573;28;19920;-81
2023/07/02 07:58:08;;;;;;;;;;;;;;;26.88;39.55;100388.38;5060553;28;20625;-80
2023/07/02 08:00:33;;;;;;;;;;;;;;;26.87;39.38;100389.53;5053050;28;19932;-80
2023/07/02 08:02:59;;;;;;;;;;;;;;;26.97;38.79;100386.19;5055349;28;20003;-80
2023/07/02 08:05:25;;;;;;;;;;;;;;;26.99;37.87;100389.38;5057136;28;19920;-81
2023/07/02 08:07:50;;;;;;;;;;;;;;;26.88;37.66;100385.63;5060000;28;20395;-80
2023/07/02 08:10:15;;;;;;;;;;;;;;;26.88;38.56;100378.19;5061466;28;19920;-80
2023/07/02 08:12:41;;;;;;;;;;;;;;;26.86;37.87;100385.19;5060896;28;20336;-80
2023/07/02 08:15:06;;;;;;;;;;;;;;;26.82;38.36;100381.59;5057828;28;20476;-80
2023/07/02 08:17:32;;;;;;;;;;;;;;;26.89;37.95;100396.25;5062534;28;19921;-77
2023/07/02 08:19:57;;;;;;;;;;;;;;;27.09;36.89;100386.00;5063137;28;20037;-80
2023/07/02 08:22:23;;;;;;;;;;;;;;;27.19;36.75;100382.66;5060230;28;20415;-80
2023/07/02 08:24:49;;;;;;;;;;;;;;;27.22;36.39;100401.16;5060327;28;19997;-80
2023/07/02 08:27:16;;;;;;;;;;;;;;;27.26;36.53;100398.44;5059753;28;20328;-79
2023/07/02 08:29:41;;;;;;;;;;;;;;;27.22;36.61;100403.13;5062514;28;19967;-81
2023/07/02 08:32:07;;;;;;;;;;;;;;;27.21;36.69;100396.81;5057864;28;20414;-84
2023/07/02 08:34:32;;;;;;;;;;;;;;;27.32;35.93;100397.00;5061938;28;19920;-82
2023/07/02 08:36:57;;;;;;;;;;;;;;;27.33;35.62;100412.34;5061719;28;20447;-82
2023/07/02 08:39:22;;;;;;;;;;;;;;;27.43;35.97;100405.41;5064361;28;19928;-83
2023/07/02 08:41:48;;;;;;;;;;;;;;;27.56;34.93;100406.78;5061200;28;19944;-80
2023/07/02 08:44:21;;;;;;;;;;;;;;;27.51;34.53;100413.41;5058189;28;20204;-80
2023/07/02 08:46:50;;;;;;;;;;;;;;;27.39;33.92;100414.41;5062803;28;19928;-79
2023/07/02 08:49:16;;;;;;;;;;;;;;;27.34;34.70;100411.97;5061602;28;20307;-81
2023/07/02 08:51:42;;;;;;;;;;;;;;;27.43;35.23;100428.19;5061492;28;20220;-81
2023/07/02 08:54:07;;;;;;;;;;;;;;;27.51;34.80;100426.38;5056757;28;19921;-80
2023/07/02 08:56:33;;;;;;;;;;;;;;;27.58;34.89;100426.47;5059666;28;20395;-81
2023/07/02 08:58:58;;;;;;;;;;;;;;;27.69;35.07;100427.44;5058331;28;20036;-81
2023/07/02 09:01:23;;;;;;;;;;;;;;;27.76;34.82;100432.25;5055634;28;20419;-82
2023/07/02 09:03:49;;;;;;;;;;;;;;;27.65;34.67;100434.88;5058398;28;19924;-80
2023/07/02 09:06:17;;;;;;;;;;;;;;;27.70;35.00;100431.78;5059592;28;20015;-81
2023/07/02 09:08:42;;;;;;;;;;;;;;;27.81;34.63;100431.91;5057511;28;20667;-80
2023/07/02 09:11:12;;;;;;;;;;;;;;;27.88;35.19;100441.09;5052990;28;19920;-81
2023/07/02 09:13:52;;;;;;;;;;;;;;;27.89;34.84;100441.88;5055935;28;19923;-79
2023/07/02 09:16:21;;;;;;;;;;;;;;;27.90;34.63;100449.78;5059454;28;19920;-79
2023/07/02 09:18:54;;;;;;;;;;;;;;;28.07;34.93;100453.94;5062530;28;19930;-80
2023/07/02 09:21:20;;;;;;;;;;;;;;;28.12;33.47;100455.56;5053963;28;20003;-80
2023/07/02 09:23:45;;;;;;;;;;;;;;;28.28;34.31;100439.66;5060367;28;19924;-78
2023/07/02 09:26:19;;;;;;;;;;;;;;;28.44;33.51;100439.47;5056165;28;20182;-79
2023/07/02 09:28:44;;;;;;;;;;;;;;;28.39;32.26;100459.88;5055866;28;20292;-82
2023/07/02 09:31:09;;;;;;;;;;;;;;;28.32;31.11;100440.50;5061060;28;19939;-80
2023/07/02 09:33:34;;;;;;;;;;;;;;;28.32;31.75;100451.50;5060682;28;19969;-80
2023/07/02 09:36:00;;;;;;;;;;;;;;;28.33;30.92;100442.06;5060785;28;19924;-80
2023/07/02 09:38:25;;;;;;;;;;;;;;;28.35;31.63;100455.47;5058032;28;20537;-79
2023/07/02 09:40:53;;;;;;;;;;;;;;;28.44;30.86;100444.97;5054658;28;19964;-81
2023/07/02 09:43:19;;;;;;;;;;;;;;;28.60;30.60;100445.53;5057448;28;19920;-79
2023/07/02 09:45:45;;;;;;;;;;;;;;;28.71;31.31;100435.41;5058038;28;19921;-79
2023/07/02 09:48:16;;;;;;;;;;;;;;;28.83;30.94;100443.41;5056651;28;19927;-79
2023/07/02 09:50:43;;;;;;;;;;;;;;;28.79;30.19;100444.56;5059422;28;20015;-79
2023/07/02 09:53:09;;;;;;;;;;;;;;;28.73;31.14;100462.63;5060185;28;19928;-81
2023/07/02 09:55:34;;;;;;;;;;;;;;;28.56;30.26;100453.78;5058440;28;19920;-79
2023/07/02 09:57:59;;;;;;;;;;;;;;;28.37;30.75;100456.72;5057151;28;19982;-80
2023/07/02 10:00:25;;;;;;;;;;;;;;;28.42;31.27;100453.63;5057713;28;19924;-82
2023/07/02 10:02:50;;;;;;;;;;;;;;;28.42;30.76;100452.81;5053549;28;20278;-80
2023/07/02 10:05:29;;;;;;;;;;;;;;;28.41;31.15;100452.03;5056151;28;20004;-78
2023/07/02 10:07:55;;;;;;;;;;;;;;;28.39;30.21;100454.38;5050284;28;20041;-82
2023/07/02 10:10:30;;;;;;;;;;;;;;;28.46;30.34;100459.94;5044244;28;20860;-79
2023/07/02 10:12:56;;;;;;;;;;;;;;;28.38;30.60;100443.72;5060868;28;19931;-80
2023/07/02 10:15:26;;;;;;;;;;;;;;;28.41;30.62;100456.75;5063357;28;19921;-79
2023/07/02 10:17:58;;;;;;;;;;;;;;;28.40;30.47;100441.38;5056089;28;20392;-81
2023/07/02 10:20:33;;;;;;;;;;;;;;;28.47;30.81;100449.72;5061043;28;20589;-80
2023/07/02 10:22:59;;;;;;;;;;;;;;;28.63;30.61;100444.00;5056601;28;19923;-79
2023/07/02 10:25:35;;;;;;;;;;;;;;;28.63;30.11;100452.25;5060864;28;19940;-79
2023/07/02 10:28:01;;;;;;;;;;;;;;;28.45;29.80;100454.81;5057744;28;19917;-80
2023/07/02 10:30:32;;;;;;;;;;;;;;;28.27;30.47;100468.38;5054516;28;19920;-79
2023/07/02 10:33:14;;;;;;;;;;;;;;;28.21;30.34;100456.09;5060835;28;19920;-78
2023/07/02 10:35:47;;;;;;;;;;;;;;;28.27;30.46;100458.16;5058232;28;19924;-78
2023/07/02 10:38:19;;;;;;;;;;;;;;;28.44;30.13;100467.81;5058163;28;19929;-79
2023/07/02 10:40:45;;;;;;;;;;;;;;;28.61;30.06;100463.66;5061234;28;19917;-79
2023/07/02 10:43:10;;;;;;;;;;;;;;;28.78;30.18;100440.22;5060987;28;19923;-79
2023/07/02 10:45:36;;;;;;;;;;;;;;;28.85;29.89;100459.56;5058314;28;19921;-78
2023/07/02 10:48:10;;;;;;;;;;;;;;;28.86;29.66;100458.44;5057767;28;19932;-82
2023/07/02 10:50:36;;;;;;;;;;;;;;;28.82;29.78;100460.34;5054145;28;19920;-80
2023/07/02 10:53:02;;;;;;;;;;;;;;;28.85;29.82;100452.09;5057008;28;19928;-79
2023/07/02 10:55:28;;;;;;;;;;;;;;;28.94;29.90;100449.06;5051004;28;19981;-80
2023/07/02 10:58:04;;;;;;;;;;;;;;;28.98;29.45;100452.66;5057037;28;19933;-81
2023/07/02 11:00:29;;;;;;;;;;;;;;;29.04;29.27;100455.84;5062520;28;19926;-83
2023/07/02 11:02:54;;;;;;;;;;;;;;;29.22;29.64;100461.53;5060626;28;19920;-79
2023/07/02 11:05:20;;;;;;;;;;;;;;;29.48;29.21;100447.59;5068624;28;20549;-80
2023/07/02 11:07:45;;;;;;;;;;;;;;;29.66;29.36;100456.00;5056911;28;19978;-81
2023/07/02 11:10:16;;;;;;;;;;;;;;;29.85;29.21;100452.94;5058180;28;20897;-78
2023/07/02 11:12:42;;;;;;;;;;;;;;;29.98;28.83;100447.88;5051678;28;19931;-80
2023/07/02 11:15:11;;;;;;;;;;;;;;;29.95;28.82;100452.19;5057326;28;19924;-80
2023/07/02 11:17:36;;;;;;;;;;;;;;;29.94;28.94;100453.38;5052309;28;20015;-80
2023/07/02 11:20:05;;;;;;;;;;;;;;;29.81;28.29;100452.16;5059483;28;19921;-79
2023/07/02 11:22:33;;;;;;;;;;;;;;;29.69;28.46;100463.50;5054408;28;20041;-79
2023/07/02 11:25:21;;;;;;;;;;;;;;;29.54;28.78;100461.81;5048877;28;19928;-80
2023/07/02 11:27:47;;;;;;;;;;;;;;;29.41;28.37;100464.84;5053426;28;19925;-79
2023/07/02 11:30:12;;;;;;;;;;;;;;;29.23;28.94;100458.38;5055908;28;19920;-78
2023/07/02 11:32:50;;;;;;;;;;;;;;;29.08;29.11;100474.00;5060047;28;19963;-80
2023/07/02 11:35:16;;;;;;;;;;;;;;;29.11;29.30;100465.00;5057552;28;19955;-80
2023/07/02 11:37:41;;;;;;;;;;;;;;;29.38;29.60;100471.13;5055320;28;19959;-79
2023/07/02 11:40:07;;;;;;;;;;;;;;;29.57;28.99;100455.53;5051827;28;20637;-77
2023/07/02 11:42:32;;;;;;;;;;;;;;;29.66;28.93;100465.06;5058450;28;19921;-79
2023/07/02 11:44:57;;;;;;;;;;;;;;;29.81;29.04;100456.88;5060908;28;19926;-80
2023/07/02 11:47:22;;;;;;;;;;;;;;;29.91;29.07;100467.19;5056793;28;20518;-79
2023/07/02 11:49:48;;;;;;;;;;;;;;;29.86;28.97;100462.03;5059789;28;19928;-80
2023/07/02 11:52:14;;;;;;;;;;;;;;;29.94;29.13;100463.63;5059358;28;19920;-80
2023/07/02 11:54:40;;;;;;;;;;;;;;;30.02;28.97;100476.31;5059885;28;20300;-80
2023/07/02 11:57:05;;;;;;;;;;;;;;;29.92;28.70;100477.03;5058541;28;19920;-80
2023/07/02 11:59:31;;;;;;;;;;;;;;;29.77;28.75;100476.16;5059938;28;19928;-79
2023/07/02 12:01:56;;;;;;;;;;;;;;;29.65;28.90;100469.00;5062079;28;19932;-81
2023/07/02 12:04:21;;;;;;;;;;;;;;;29.38;29.08;100475.84;5066438;28;19932;-79
2023/07/02 12:06:47;;;;;;;;;;;;;;;29.16;28.58;100478.44;5061270;28;19921;-80
2023/07/02 12:09:12;;;;;;;;;;;;;;;29.04;29.50;100484.22;5062876;28;19959;-81
2023/07/02 12:11:38;;;;;;;;;;;;;;;28.83;29.16;100487.53;5058513;28;19920;-79
2023/07/02 12:14:03;;;;;;;;;;;;;;;28.80;29.96;100480.03;5054749;28;19979;-79
2023/07/02 12:16:29;;;;;;;;;;;;;;;28.80;29.38;100482.78;5060805;28;19924;-79
2023/07/02 12:18:54;;;;;;;;;;;;;;;28.84;30.03;100482.81;5058680;28;20510;-78
2023/07/02 12:21:19;;;;;;;;;;;;;;;28.92;29.70;100487.28;5058738;28;19920;-79
2023/07/02 12:23:45;;;;;;;;;;;;;;;29.18;29.92;100475.28;5058748;28;20019;-80
2023/07/02 12:26:10;;;;;;;;;;;;;;;29.48;29.47;100481.50;5058510;28;20727;-78
2023/07/02 12:28:36;;;;;;;;;;;;;;;29.61;28.77;100479.22;5058740;28;19935;-79
2023/07/02 12:31:02;;;;;;;;;;;;;;;29.40;27.85;100479.81;5063004;28;20015;-80